首页
METAR-TAF:

METAR-TAF

机场 :

Sedona, 亞利桑那州, 美国

纬度: 34-51N, 经度: 111-47W, 海拔: 1471米

当前天气观测

该预报发布于11分钟前的05:55 UTC
风速8节,风向北转东北
温度 18°C
湿度 16%
气压 1016 hPa
能見度: 16.1公里
天空无云

METAR: KSEZ 250555Z AUTO 03008KT 10SM CLR 18/M08 A2999 RMK AO2

时间: 23:06 (06:06 UTC)

预报

该预报发布于46分钟前的05:20 UTC
预报有效从25日的 06点(UTC)到 26日的 06点(UTC)
风速14节,风向北转东北,有时为22节阵风
能見度: 10公里
天空无云
从 25日的 1700点(UTC)
风速8节,风向
能見度: 10公里
天空无云
从 26日的 0300点(UTC)
风速14节,风向东北,有时为22节阵风
能見度: 10公里
天空无云

TAF: KSEZ 250520Z 2506/2606 03014G22KT P6SM SKC FM251700 08008KT P6SM SKC FM260300 05014G22KT P6SM SKC

超过4000个机场的气象观测和天气预报(METAR&TAF报告)。

可查询的气象台以黄色和红色小点在地图上表示。

将鼠标移到小点上方,可查看气象台名称。

然后点击查看天气观测和预报。

如需切换地图:点击带黑十字的绿色按钮放大地图;点击带横线的绿色按钮缩小地图;或者点击绿色箭头查看邻近地区的地图。


METAR-TAF: